Time;durP1;ratioP1;P1;durP2;ratioP2;P2;SDS_P1;SDS_P2;PMS_P1;PMS_P2;Temp;Humidity;BMP_temperature;BMP_pressure;BME280_temperature;BME280_humidity;BME280_pressure;Samples;Min_cycle;Max_cycle;Signal;HPM_P1;HPM_P2
2022/07/23 00:00:04;;;;;;;18.52;17.02;;;19.70;72.90;;;;;;4987156;28;21149;-76
2022/07/23 00:02:30;;;;;;;19.73;18.15;;;19.60;73.40;;;;;;4999140;28;20427;-76
2022/07/23 00:04:57;;;;;;;19.63;17.92;;;19.60;73.50;;;;;;5007275;28;20456;-75
2022/07/23 00:07:24;;;;;;;19.67;18.08;;;19.60;73.80;;;;;;5007175;28;20867;-76
2022/07/23 00:09:53;;;;;;;19.38;17.77;;;19.50;74.20;;;;;;5007119;28;20424;-76
2022/07/23 00:12:19;;;;;;;19.93;18.43;;;19.40;75.60;;;;;;5007173;28;20877;-75
2022/07/23 00:14:46;;;;;;;19.02;17.52;;;19.40;75.70;;;;;;5007103;28;20878;-76
2022/07/23 00:17:13;;;;;;;18.30;16.70;;;19.40;75.50;;;;;;5006824;28;20439;-77
2022/07/23 00:19:40;;;;;;;16.83;15.43;;;19.40;74.80;;;;;;5007209;28;20431;-76
2022/07/23 00:22:06;;;;;;;17.73;16.30;;;19.40;74.60;;;;;;5005873;28;20767;-77
2022/07/23 00:24:33;;;;;;;19.17;17.48;;;19.40;74.20;;;;;;5006880;28;20549;-77
2022/07/23 00:27:01;;;;;;;19.67;18.08;;;19.30;75.30;;;;;;5007859;28;20421;-77
2022/07/23 00:29:28;;;;;;;21.83;20.02;;;19.30;76.30;;;;;;5007441;28;20416;-77
2022/07/23 00:31:55;;;;;;;22.85;20.85;;;19.20;78.70;;;;;;5007288;28;20443;-77
2022/07/23 00:34:22;;;;;;;22.42;20.42;;;19.00;80.50;;;;;;5007353;28;20413;-75
2022/07/23 00:36:48;;;;;;;21.90;20.00;;;18.90;81.60;;;;;;5006635;28;20877;-76
2022/07/23 00:39:15;;;;;;;21.00;19.30;;;18.80;82.60;;;;;;5007207;28;20429;-77
2022/07/23 00:41:42;;;;;;;20.08;18.17;;;18.70;84.20;;;;;;5006847;28;20417;-74
2022/07/23 00:44:17;;;;;;;20.33;18.60;;;18.60;83.90;;;;;;5007657;28;20498;-76
2022/07/23 00:46:48;;;;;;;20.42;18.63;;;18.50;84.80;;;;;;5007047;28;20814;-76
2022/07/23 00:49:15;;;;;;;19.38;17.60;;;18.50;84.90;;;;;;5006892;28;20421;-75
2022/07/23 00:51:42;;;;;;;17.20;15.80;;;18.50;84.60;;;;;;5006304;28;20420;-76
2022/07/23 00:54:10;;;;;;;17.60;16.10;;;18.50;84.30;;;;;;5006626;28;20416;-75
2022/07/23 00:56:36;;;;;;;17.70;16.20;;;18.50;83.00;;;;;;5006375;28;20428;-74
2022/07/23 00:59:04;;;;;;;18.55;16.95;;;18.50;83.00;;;;;;5006756;28;20435;-75
2022/07/23 01:01:32;;;;;;;17.63;15.93;;;18.50;82.80;;;;;;5006375;28;20447;-74
2022/07/23 01:03:59;;;;;;;16.37;14.97;;;18.40;81.90;;;;;;5006703;28;20452;-73
2022/07/23 01:06:25;;;;;;;16.90;15.50;;;18.40;83.10;;;;;;5006172;28;20795;-75
2022/07/23 01:08:53;;;;;;;17.00;15.60;;;18.40;83.50;;;;;;5007335;28;20504;-75
2022/07/23 01:11:20;;;;;;;17.40;15.65;;;18.40;84.10;;;;;;5006262;28;20416;-76
2022/07/23 01:13:48;;;;;;;18.60;16.80;;;18.40;84.90;;;;;;5006677;28;20428;-76
2022/07/23 01:16:15;;;;;;;21.40;19.50;;;18.40;85.70;;;;;;5006242;28;20574;-75
2022/07/23 01:18:43;;;;;;;24.33;22.13;;;18.40;88.80;;;;;;5004537;23;20446;-74
2022/07/23 01:21:13;;;;;;;24.67;22.40;;;18.30;90.30;;;;;;4985307;28;20510;-74
2022/07/23 01:23:42;;;;;;;24.17;21.90;;;18.10;90.50;;;;;;4992635;28;20430;-74
2022/07/23 01:26:08;;;;;;;23.80;21.60;;;18.00;91.10;;;;;;5008307;28;20442;-73
2022/07/23 01:28:35;;;;;;;22.80;20.85;;;17.90;91.10;;;;;;4993676;28;20497;-72
2022/07/23 01:31:02;;;;;;;25.45;22.98;;;17.80;91.40;;;;;;4989308;28;20445;-73
2022/07/23 01:33:29;;;;;;;23.77;21.67;;;17.80;91.90;;;;;;5011851;28;20418;-72
2022/07/23 01:35:56;;;;;;;19.98;18.17;;;17.80;92.10;;;;;;5013223;28;20426;-73
2022/07/23 01:38:23;;;;;;;25.63;23.00;;;17.70;92.20;;;;;;5002877;28;20446;-71
2022/07/23 01:40:51;;;;;;;28.15;25.25;;;17.70;92.70;;;;;;4999523;28;20490;-75
2022/07/23 01:43:18;;;;;;;24.33;21.80;;;17.60;93.30;;;;;;5013165;28;20418;-72
2022/07/23 01:45:45;;;;;;;23.35;21.05;;;17.60;93.70;;;;;;5014314;28;20457;-71
2022/07/23 01:48:11;;;;;;;22.88;20.67;;;17.50;93.80;;;;;;5014548;28;20434;-72
2022/07/23 01:50:38;;;;;;;21.05;19.20;;;17.40;94.00;;;;;;5012725;28;20410;-74
2022/07/23 01:53:05;;;;;;;18.77;17.10;;;17.30;94.50;;;;;;5012070;28;20414;-74
2022/07/23 01:55:32;;;;;;;22.70;20.70;;;17.20;94.00;;;;;;5000609;28;20501;-73
2022/07/23 01:58:01;;;;;;;19.40;17.70;;;17.20;94.40;;;;;;5009743;28;20442;-72
2022/07/23 02:00:27;;;;;;;19.17;17.38;;;17.10;94.50;;;;;;5005177;28;20517;-72
2022/07/23 02:02:54;;;;;;;18.13;16.52;;;17.10;94.30;;;;;;4977982;28;20916;-74
2022/07/23 02:05:21;;;;;;;20.23;18.63;;;17.00;94.00;;;;;;4970637;28;20539;-72
2022/07/23 02:07:48;;;;;;;21.55;19.65;;;16.90;94.10;;;;;;4972183;28;20499;-75
2022/07/23 02:10:15;;;;;;;20.70;18.90;;;16.90;94.30;;;;;;4969506;28;20518;-72
2022/07/23 02:12:42;;;;;;;23.25;21.15;;;16.90;94.30;;;;;;4953764;28;20505;-73
2022/07/23 02:15:10;;;;;;;24.70;22.40;;;16.80;94.30;;;;;;4953964;29;20490;-72
2022/07/23 02:17:38;;;;;;;27.23;24.53;;;16.80;94.60;;;;;;4953638;28;20469;-73
2022/07/23 02:20:06;;;;;;;25.45;23.15;;;16.80;94.90;;;;;;4951867;29;20430;-72
2022/07/23 02:22:33;;;;;;;24.80;22.60;;;16.80;95.00;;;;;;4951546;28;20508;-73
2022/07/23 02:25:00;;;;;;;26.75;24.25;;;16.80;95.00;;;;;;4951831;29;20525;-74
2022/07/23 02:27:28;;;;;;;31.10;27.92;;;16.80;95.10;;;;;;4951970;29;20429;-73
2022/07/23 02:29:55;;;;;;;27.80;25.10;;;16.80;95.30;;;;;;4951395;29;20688;-73
2022/07/23 02:32:23;;;;;;;29.65;26.75;;;16.80;95.30;;;;;;4951179;28;20893;-72
2022/07/23 02:34:50;;;;;;;31.23;28.13;;;16.80;95.30;;;;;;4951449;29;20506;-73
2022/07/23 02:37:17;;;;;;;30.35;27.45;;;16.80;95.30;;;;;;4949766;29;20513;-74
2022/07/23 02:39:44;;;;;;;32.47;29.17;;;16.80;95.30;;;;;;4951743;29;20520;-72
2022/07/23 02:42:11;;;;;;;29.80;26.90;;;16.80;95.60;;;;;;4950410;28;20434;-72
2022/07/23 02:44:38;;;;;;;35.78;32.03;;;16.80;95.60;;;;;;4950508;28;20436;-73
2022/07/23 02:47:05;;;;;;;30.00;27.10;;;16.80;95.80;;;;;;4951126;29;20417;-73
2022/07/23 02:49:34;;;;;;;30.13;27.23;;;16.80;95.80;;;;;;4951915;29;20428;-72
2022/07/23 02:52:01;;;;;;;30.65;27.55;;;16.80;95.70;;;;;;4949133;28;20444;-72
2022/07/23 02:54:28;;;;;;;26.58;24.17;;;16.80;95.70;;;;;;4951694;29;20427;-73
2022/07/23 02:56:55;;;;;;;25.02;22.63;;;16.80;95.60;;;;;;4964048;29;20482;-74
2022/07/23 02:59:21;;;;;;;25.73;23.23;;;16.80;95.40;;;;;;4965555;29;20422;-73
2022/07/23 03:01:48;;;;;;;28.80;25.90;;;16.80;95.30;;;;;;4950691;28;20422;-73
2022/07/23 03:04:15;;;;;;;28.70;26.00;;;16.70;95.30;;;;;;4950866;29;20433;-73
2022/07/23 03:06:43;;;;;;;28.38;25.58;;;16.70;95.70;;;;;;4949555;29;20420;-73
2022/07/23 03:09:10;;;;;;;28.58;25.88;;;16.70;95.40;;;;;;4951039;29;20886;-73
2022/07/23 03:11:37;;;;;;;27.77;25.08;;;16.60;95.50;;;;;;4959907;28;20516;-73
2022/07/23 03:14:04;;;;;;;28.23;25.58;;;16.60;95.50;;;;;;4970379;28;20509;-73
2022/07/23 03:16:31;;;;;;;28.92;26.20;;;16.60;95.40;;;;;;4969768;28;20422;-72
2022/07/23 03:18:57;;;;;;;30.90;27.70;;;16.50;95.20;;;;;;4970122;28;20428;-73
2022/07/23 03:21:25;;;;;;;34.03;30.60;;;16.50;95.20;;;;;;4967229;28;20452;-73
2022/07/23 03:23:53;;;;;;;32.60;29.40;;;16.40;95.30;;;;;;4969483;28;20503;-74
2022/07/23 03:26:20;;;;;;;32.25;29.15;;;16.40;95.30;;;;;;4969651;28;20426;-74
2022/07/23 03:28:47;;;;;;;35.63;32.03;;;16.50;95.20;;;;;;4969985;28;20797;-73
2022/07/23 03:31:13;;;;;;;36.20;32.38;;;16.40;95.20;;;;;;4968043;28;20542;-74
2022/07/23 03:33:41;;;;;;;31.90;28.85;;;16.40;95.30;;;;;;4969515;28;20511;-71
2022/07/23 03:36:09;;;;;;;30.88;27.88;;;16.40;95.10;;;;;;4968260;28;20793;-74
2022/07/23 03:38:36;;;;;;;32.42;29.33;;;16.40;94.50;;;;;;4969503;28;20455;-72
2022/07/23 03:41:04;;;;;;;34.70;31.13;;;16.40;94.10;;;;;;4967604;28;20420;-73
2022/07/23 03:43:31;;;;;;;34.58;30.98;;;16.30;94.30;;;;;;4969476;28;20426;-72
2022/07/23 03:45:57;;;;;;;34.05;30.55;;;16.30;94.50;;;;;;4968924;28;20885;-73
2022/07/23 03:48:24;;;;;;;32.72;29.60;;;16.30;94.70;;;;;;4969552;28;20503;-73
2022/07/23 03:50:51;;;;;;;33.28;29.98;;;16.30;94.70;;;;;;4966324;28;20430;-73
2022/07/23 03:53:18;;;;;;;32.90;29.60;;;16.30;94.80;;;;;;4969456;28;20803;-72
2022/07/23 03:55:45;;;;;;;34.88;31.48;;;16.30;94.80;;;;;;4967734;28;20467;-72
2022/07/23 03:58:13;;;;;;;33.53;30.23;;;16.30;94.50;;;;;;4969190;28;20424;-72
2022/07/23 04:00:40;;;;;;;34.97;31.50;;;16.30;94.40;;;;;;4968299;28;20428;-73
2022/07/23 04:03:07;;;;;;;34.28;30.88;;;16.30;94.40;;;;;;4969817;28;20479;-73
2022/07/23 04:05:34;;;;;;;34.83;31.27;;;16.20;94.50;;;;;;4968057;28;20527;-73
2022/07/23 04:08:01;;;;;;;34.88;31.27;;;16.30;94.50;;;;;;4970085;28;20424;-72
2022/07/23 04:10:28;;;;;;;33.35;30.15;;;16.30;94.30;;;;;;4967376;28;20450;-73
2022/07/23 04:12:54;;;;;;;32.30;29.30;;;16.30;94.20;;;;;;4969782;28;20487;-73
2022/07/23 04:15:23;;;;;;;33.27;29.97;;;16.20;94.20;;;;;;4968579;28;20436;-72
2022/07/23 04:17:49;;;;;;;33.55;30.35;;;16.20;94.20;;;;;;4969003;28;20520;-73
2022/07/23 04:20:16;;;;;;;33.78;30.48;;;16.30;94.40;;;;;;4966237;28;20424;-73
2022/07/23 04:22:43;;;;;;;34.45;31.05;;;16.20;94.30;;;;;;4968665;28;20459;-73
2022/07/23 04:25:10;;;;;;;36.33;32.63;;;16.20;94.30;;;;;;4968437;28;20432;-73
2022/07/23 04:27:37;;;;;;;33.13;29.73;;;16.20;94.60;;;;;;4968572;28;20428;-73
2022/07/23 04:30:04;;;;;;;32.53;29.33;;;16.20;94.70;;;;;;4967274;28;20427;-72
2022/07/23 04:32:32;;;;;;;31.08;28.27;;;16.20;94.70;;;;;;4968855;28;20431;-73
2022/07/23 04:34:59;;;;;;;32.00;29.00;;;16.20;94.60;;;;;;4968184;28;20508;-72
2022/07/23 04:37:26;;;;;;;30.37;27.50;;;16.20;94.60;;;;;;4967652;28;20878;-72
2022/07/23 04:39:53;;;;;;;31.48;28.30;;;16.20;94.70;;;;;;4968498;28;20423;-71
2022/07/23 04:42:20;;;;;;;31.80;28.80;;;16.30;94.40;;;;;;4968328;28;20519;-72
2022/07/23 04:44:47;;;;;;;31.85;28.70;;;16.20;94.20;;;;;;4968675;28;20458;-74
2022/07/23 04:47:13;;;;;;;30.10;27.40;;;16.30;94.10;;;;;;4968671;28;20464;-73
2022/07/23 04:49:42;;;;;;;30.83;27.73;;;16.30;94.00;;;;;;4968926;28;20424;-73
2022/07/23 04:52:08;;;;;;;31.90;28.98;;;16.30;94.00;;;;;;4965735;28;20432;-72
2022/07/23 04:54:35;;;;;;;31.45;28.38;;;16.30;94.20;;;;;;4968775;28;20416;-72
2022/07/23 04:57:02;;;;;;;31.30;28.30;;;16.30;94.00;;;;;;4968766;28;20511;-73
2022/07/23 04:59:29;;;;;;;31.30;28.20;;;16.30;93.90;;;;;;4969977;28;20566;-74
2022/07/23 05:01:56;;;;;;;31.20;28.10;;;16.30;93.90;;;;;;4967967;28;20420;-74
2022/07/23 05:04:22;;;;;;;31.63;28.63;;;16.30;93.40;;;;;;4968735;28;20451;-74
2022/07/23 05:06:51;;;;;;;32.80;29.60;;;16.30;93.30;;;;;;4966961;28;20905;-74
2022/07/23 05:09:17;;;;;;;31.23;28.23;;;16.30;93.60;;;;;;4972552;28;20445;-74
2022/07/23 05:11:44;;;;;;;34.08;30.73;;;16.30;93.90;;;;;;4970656;28;20419;-74
2022/07/23 05:14:12;;;;;;;35.05;31.52;;;16.40;94.30;;;;;;4972628;28;20434;-74
2022/07/23 05:16:39;;;;;;;35.83;32.22;;;16.40;94.00;;;;;;4972138;28;20778;-73
2022/07/23 05:19:05;;;;;;;35.45;31.75;;;16.40;94.10;;;;;;4972298;28;20513;-72
2022/07/23 05:21:32;;;;;;;32.92;29.63;;;16.50;94.20;;;;;;4969311;28;20434;-72
2022/07/23 05:24:00;;;;;;;35.75;32.25;;;16.50;94.20;;;;;;4972361;28;20770;-73
2022/07/23 05:26:27;;;;;;;35.13;31.70;;;16.50;94.20;;;;;;4971987;28;20514;-72
2022/07/23 05:28:54;;;;;;;36.13;32.63;;;16.60;94.30;;;;;;4971987;28;20453;-73
2022/07/23 05:31:21;;;;;;;33.60;30.40;;;16.60;94.40;;;;;;4970660;28;20504;-74
2022/07/23 05:33:48;;;;;;;32.78;29.77;;;16.70;94.30;;;;;;4972045;28;20498;-73
2022/07/23 05:36:15;;;;;;;33.90;30.50;;;16.70;94.20;;;;;;4970118;28;20593;-73
2022/07/23 05:38:42;;;;;;;32.67;29.48;;;16.80;94.20;;;;;;4972244;28;20526;-73
2022/07/23 05:41:10;;;;;;;32.25;29.00;;;16.90;94.10;;;;;;4970369;28;20435;-73
2022/07/23 05:43:37;;;;;;;30.00;27.00;;;16.90;94.00;;;;;;4971859;28;20430;-72
2022/07/23 05:46:03;;;;;;;31.02;28.02;;;17.00;93.70;;;;;;4971376;28;20527;-72
2022/07/23 05:48:31;;;;;;;30.23;27.38;;;17.00;93.60;;;;;;4972238;28;20419;-73
2022/07/23 05:50:58;;;;;;;29.57;26.57;;;17.00;93.50;;;;;;4969513;28;20523;-73
2022/07/23 05:53:25;;;;;;;30.85;27.73;;;17.10;92.90;;;;;;4971794;28;20428;-73
2022/07/23 05:55:52;;;;;;;29.23;26.52;;;17.00;92.40;;;;;;4971319;28;20503;-73
2022/07/23 05:58:20;;;;;;;29.65;26.73;;;17.00;92.40;;;;;;4971968;28;20506;-74
2022/07/23 06:00:47;;;;;;;30.23;27.20;;;17.00;92.90;;;;;;4964253;28;20768;-73
2022/07/23 06:03:14;;;;;;;29.75;26.90;;;17.00;93.10;;;;;;4952523;29;20546;-73
2022/07/23 06:05:40;;;;;;;29.10;26.35;;;17.10;93.30;;;;;;4950321;29;20520;-73
2022/07/23 06:08:07;;;;;;;29.50;26.70;;;17.10;93.40;;;;;;4953083;29;20481;-73
2022/07/23 06:10:34;;;;;;;29.23;26.43;;;17.20;93.40;;;;;;4952978;28;20869;-72
2022/07/23 06:13:02;;;;;;;28.20;25.50;;;17.20;93.20;;;;;;4971990;28;20507;-73
2022/07/23 06:15:30;;;;;;;26.40;23.95;;;17.30;93.60;;;;;;4972111;28;20861;-72
2022/07/23 06:17:57;;;;;;;26.60;24.20;;;17.40;92.70;;;;;;4972309;28;20500;-73
2022/07/23 06:20:24;;;;;;;27.75;25.08;;;17.40;91.80;;;;;;4967691;28;20963;-72
2022/07/23 06:22:51;;;;;;;26.48;23.88;;;17.40;91.70;;;;;;4971590;28;20415;-73
2022/07/23 06:25:17;;;;;;;25.17;22.88;;;17.50;91.70;;;;;;4970950;28;20436;-73
2022/07/23 06:27:44;;;;;;;25.58;23.27;;;17.50;91.50;;;;;;4971739;28;20953;-72
2022/07/23 06:30:13;;;;;;;24.42;22.00;;;17.50;91.00;;;;;;4970322;28;20499;-72
2022/07/23 06:32:41;;;;;;;23.98;21.70;;;17.50;91.40;;;;;;4972017;28;20889;-73
2022/07/23 06:35:08;;;;;;;23.70;21.40;;;17.60;91.70;;;;;;4971626;28;20515;-72
2022/07/23 06:37:35;;;;;;;22.85;20.75;;;17.70;91.50;;;;;;4971846;28;20480;-73
2022/07/23 06:40:02;;;;;;;23.42;21.23;;;17.80;91.20;;;;;;4970377;28;20515;-73
2022/07/23 06:42:29;;;;;;;22.70;20.80;;;17.80;90.70;;;;;;4971222;28;20506;-73
2022/07/23 06:44:56;;;;;;;22.83;20.73;;;17.90;90.70;;;;;;4970771;28;20416;-72
2022/07/23 06:47:23;;;;;;;23.17;21.00;;;18.00;90.80;;;;;;4970513;28;20475;-72
2022/07/23 06:49:51;;;;;;;22.45;20.55;;;18.00;90.10;;;;;;4970944;28;20427;-72
2022/07/23 06:52:18;;;;;;;21.63;19.52;;;18.10;89.20;;;;;;4969130;28;20428;-73
2022/07/23 06:54:45;;;;;;;20.35;18.55;;;18.10;89.70;;;;;;4970655;28;20474;-72
2022/07/23 06:57:12;;;;;;;19.95;18.05;;;18.20;90.10;;;;;;4969988;28;20416;-74
2022/07/23 06:59:40;;;;;;;19.88;18.08;;;18.30;90.20;;;;;;4970631;28;20459;-73
2022/07/23 07:02:07;;;;;;;19.90;18.00;;;18.50;90.20;;;;;;4969470;28;20463;-73
2022/07/23 07:04:34;;;;;;;19.00;17.30;;;18.60;88.70;;;;;;4970532;28;20424;-73
2022/07/23 07:07:02;;;;;;;18.42;16.73;;;18.80;86.70;;;;;;4969082;28;20892;-73
2022/07/23 07:09:29;;;;;;;19.10;17.30;;;18.90;86.80;;;;;;4982234;28;20459;-71
2022/07/23 07:11:56;;;;;;;17.92;16.23;;;19.00;85.70;;;;;;4975216;28;20420;-72
2022/07/23 07:14:23;;;;;;;17.77;16.25;;;19.10;85.30;;;;;;4970693;28;20927;-72
2022/07/23 07:16:50;;;;;;;17.33;15.93;;;19.20;84.40;;;;;;4970412;28;20492;-72
2022/07/23 07:19:17;;;;;;;19.13;17.42;;;19.40;83.80;;;;;;5030304;22;20770;-77
2022/07/23 07:21:43;;;;;;;17.70;16.00;;;19.50;82.80;;;;;;5020058;22;20718;-74
2022/07/23 07:24:12;;;;;;;18.00;16.40;;;19.60;81.40;;;;;;5006950;28;20512;-74
2022/07/23 07:26:39;;;;;;;16.05;14.65;;;19.70;80.90;;;;;;5006537;28;20452;-73
2022/07/23 07:29:06;;;;;;;14.75;13.55;;;19.70;81.90;;;;;;5007133;28;20424;-73
2022/07/23 07:31:33;;;;;;;14.70;13.33;;;19.80;80.40;;;;;;4997122;28;20435;-75
2022/07/23 07:34:00;;;;;;;14.90;13.67;;;20.00;80.30;;;;;;4987470;28;20774;-74
2022/07/23 07:36:27;;;;;;;14.52;13.32;;;20.20;79.20;;;;;;4985653;28;20789;-73
2022/07/23 07:38:54;;;;;;;14.50;13.20;;;20.40;78.30;;;;;;4987354;28;20492;-74
2022/07/23 07:41:23;;;;;;;16.52;15.23;;;20.60;76.80;;;;;;4985701;28;20418;-73
2022/07/23 07:43:50;;;;;;;16.90;15.60;;;20.70;76.20;;;;;;4987331;28;20740;-73
2022/07/23 07:46:17;;;;;;;18.15;16.55;;;20.90;75.70;;;;;;4986529;28;20433;-73
2022/07/23 07:48:44;;;;;;;19.20;17.60;;;21.00;75.20;;;;;;4986896;28;20469;-75
2022/07/23 07:51:11;;;;;;;17.90;16.42;;;21.10;73.00;;;;;;4984236;28;20446;-73
2022/07/23 07:53:38;;;;;;;16.35;15.05;;;21.10;73.00;;;;;;4986756;28;20434;-73
2022/07/23 07:56:05;;;;;;;17.60;16.10;;;21.10;73.50;;;;;;4986545;28;20461;-73
2022/07/23 07:58:33;;;;;;;17.20;15.70;;;21.20;73.00;;;;;;4986632;28;20425;-77
2022/07/23 08:01:02;;;;;;;16.42;15.07;;;21.10;72.40;;;;;;4984940;28;20881;-75
2022/07/23 08:03:28;;;;;;;14.98;13.77;;;20.90;74.20;;;;;;4986649;28;20867;-74
2022/07/23 08:05:55;;;;;;;16.15;14.75;;;21.00;74.20;;;;;;4984851;28;20441;-73
2022/07/23 08:08:22;;;;;;;15.32;14.23;;;21.00;72.00;;;;;;4986763;28;20500;-73
2022/07/23 08:10:49;;;;;;;15.80;14.60;;;21.10;71.60;;;;;;4985378;28;20429;-73
2022/07/23 08:13:17;;;;;;;15.00;13.80;;;21.10;71.50;;;;;;4986833;28;20500;-73
2022/07/23 08:15:45;;;;;;;16.13;14.63;;;21.30;71.10;;;;;;4986370;28;20427;-73
2022/07/23 08:18:12;;;;;;;16.55;15.25;;;21.60;68.80;;;;;;4986560;28;20501;-73
2022/07/23 08:20:39;;;;;;;15.65;14.55;;;21.70;69.00;;;;;;4984172;28;20802;-74
2022/07/23 08:23:08;;;;;;;17.00;15.70;;;21.60;69.70;;;;;;4986317;28;20432;-73
2022/07/23 08:25:37;;;;;;;16.20;14.90;;;21.50;67.90;;;;;;4986300;28;20438;-73
2022/07/23 08:28:05;;;;;;;15.85;14.65;;;21.40;70.00;;;;;;4986490;28;20445;-73
2022/07/23 08:30:34;;;;;;;16.67;15.17;;;21.30;69.90;;;;;;4984976;28;20502;-73
2022/07/23 08:33:06;;;;;;;14.90;13.80;;;21.30;70.40;;;;;;4986258;28;20430;-76
2022/07/23 08:35:34;;;;;;;14.98;13.77;;;21.40;71.10;;;;;;4984431;28;20939;-76
2022/07/23 08:38:03;;;;;;;14.10;12.90;;;21.50;70.60;;;;;;4986275;28;20426;-73
2022/07/23 08:40:31;;;;;;;12.93;12.02;;;22.00;68.50;;;;;;4985187;28;20505;-73
2022/07/23 08:42:59;;;;;;;12.13;11.32;;;22.50;67.00;;;;;;4988207;28;20421;-73
2022/07/23 08:45:28;;;;;;;13.30;12.23;;;22.90;64.60;;;;;;4989834;28;20512;-73
2022/07/23 08:47:56;;;;;;;11.90;11.00;;;23.30;61.70;;;;;;4990751;28;20434;-73
2022/07/23 08:50:25;;;;;;;11.63;10.82;;;23.40;61.80;;;;;;4987409;28;20440;-73
2022/07/23 08:52:53;;;;;;;12.10;11.10;;;23.50;62.60;;;;;;4990457;28;20418;-73
2022/07/23 08:55:22;;;;;;;12.00;11.00;;;23.70;61.70;;;;;;4990369;28;20429;-73
2022/07/23 08:57:50;;;;;;;11.00;10.20;;;24.10;59.90;;;;;;4991288;28;20851;-73
2022/07/23 09:00:18;;;;;;;10.43;9.63;;;24.30;59.40;;;;;;4989561;28;20423;-75
2022/07/23 09:02:46;;;;;;;10.65;9.85;;;24.70;58.40;;;;;;4990292;28;20422;-73
2022/07/23 09:05:14;;;;;;;9.50;8.70;;;24.90;54.90;;;;;;4988612;28;20418;-73
2022/07/23 09:08:10;;;;;;;12.10;11.30;;;25.00;56.10;;;;;;4989583;28;20545;-73
2022/07/23 09:10:52;;;;;;;10.93;10.10;;;24.90;54.30;;;;;;4988413;28;20435;-73
2022/07/23 09:13:31;;;;;;;11.15;10.35;;;24.70;56.60;;;;;;4990200;28;20496;-73
2022/07/23 09:16:00;;;;;;;11.30;10.32;;;24.30;56.90;;;;;;4989625;28;20418;-74
2022/07/23 09:18:37;;;;;;;11.63;10.83;;;24.10;58.40;;;;;;4989467;28;20481;-74
2022/07/23 09:21:09;;;;;;;10.10;9.40;;;24.00;57.40;;;;;;4987056;28;20816;-75
2022/07/23 09:23:42;;;;;;;13.40;12.40;;;24.00;58.60;;;;;;4989007;28;20497;-75
2022/07/23 09:26:19;;;;;;;11.80;10.80;;;24.20;56.00;;;;;;4989666;28;20840;-73
2022/07/23 09:28:55;;;;;;;9.73;9.13;;;24.40;56.20;;;;;;4989615;28;20859;-74
2022/07/23 09:31:23;;;;;;;10.95;10.15;;;24.50;56.60;;;;;;4987837;28;20422;-76
2022/07/23 09:33:50;;;;;;;10.77;9.98;;;24.80;55.60;;;;;;4989438;28;20424;-73
2022/07/23 09:36:28;;;;;;;12.00;11.10;;;24.90;55.20;;;;;;4987558;28;20505;-74
2022/07/23 09:38:56;;;;;;;12.27;11.38;;;25.20;54.40;;;;;;4989881;28;20501;-73
2022/07/23 09:41:24;;;;;;;12.90;12.10;;;25.40;54.00;;;;;;4987974;28;20484;-73
2022/07/23 09:43:57;;;;;;;13.20;12.30;;;25.40;51.40;;;;;;4989319;28;20453;-74
2022/07/23 09:46:25;;;;;;;11.90;11.10;;;25.20;52.40;;;;;;4988950;28;20434;-72
2022/07/23 09:48:52;;;;;;;11.87;10.87;;;24.90;54.20;;;;;;4989465;28;20600;-73
2022/07/23 09:51:23;;;;;;;11.70;10.90;;;24.80;55.40;;;;;;4987656;28;20428;-73
2022/07/23 09:53:50;;;;;;;12.15;11.15;;;24.90;54.70;;;;;;4989917;28;20422;-73
2022/07/23 09:56:20;;;;;;;12.18;11.18;;;25.20;54.10;;;;;;4989987;28;20437;-76
2022/07/23 09:58:51;;;;;;;11.63;10.82;;;25.60;53.20;;;;;;4989687;28;20428;-74
2022/07/23 10:01:19;;;;;;;12.00;11.00;;;25.90;52.20;;;;;;4987980;28;20492;-74
2022/07/23 10:03:47;;;;;;;13.30;12.25;;;26.30;51.40;;;;;;4989093;28;20422;-72
2022/07/23 10:06:14;;;;;;;13.35;12.25;;;26.60;49.90;;;;;;4987339;28;20844;-73
2022/07/23 10:08:42;;;;;;;11.73;10.82;;;26.80;49.90;;;;;;4989140;28;20414;-75
2022/07/23 10:11:12;;;;;;;12.50;11.60;;;26.90;49.00;;;;;;4987775;28;20437;-75
2022/07/23 10:13:52;;;;;;;11.60;10.70;;;26.80;48.40;;;;;;4989097;28;20926;-76
2022/07/23 10:16:20;;;;;;;12.23;11.32;;;26.60;47.80;;;;;;4989174;28;20496;-75
2022/07/23 10:18:47;;;;;;;11.20;10.38;;;26.50;46.60;;;;;;4989147;28;20456;-72
2022/07/23 10:21:21;;;;;;;10.13;9.43;;;26.50;47.40;;;;;;4986027;28;20669;-74
2022/07/23 10:24:00;;;;;;;11.50;10.60;;;26.60;47.40;;;;;;4988336;28;20908;-72
2022/07/23 10:26:36;;;;;;;11.83;11.03;;;26.90;45.70;;;;;;4988065;28;20423;-72
2022/07/23 10:29:14;;;;;;;12.47;11.50;;;27.00;45.90;;;;;;4988277;28;20429;-73
2022/07/23 10:31:51;;;;;;;10.90;10.00;;;27.00;45.20;;;;;;4987521;28;20469;-72
2022/07/23 10:34:25;;;;;;;9.13;8.33;;;27.00;47.00;;;;;;4988551;28;20854;-73
2022/07/23 10:36:57;;;;;;;8.45;7.85;;;27.10;46.70;;;;;;4986234;28;20442;-73
2022/07/23 10:39:27;;;;;;;8.02;7.32;;;27.10;46.30;;;;;;4988301;28;20512;-72
2022/07/23 10:42:08;;;;;;;8.20;7.60;;;27.00;46.90;;;;;;4987108;28;20419;-72
2022/07/23 10:44:42;;;;;;;8.15;7.50;;;27.30;46.30;;;;;;4988081;28;20886;-73
2022/07/23 10:49:54;;;;;;;5.50;5.07;;;27.80;44.00;;;;;;4987511;28;20919;-76
2022/07/23 10:52:26;;;;;;;6.13;5.63;;;28.20;42.70;;;;;;4985427;28;20418;-72
2022/07/23 10:54:55;;;;;;;7.60;7.00;;;28.40;42.60;;;;;;4987862;28;20440;-71
2022/07/23 10:57:23;;;;;;;7.10;6.50;;;28.50;41.00;;;;;;4987628;28;20437;-72
2022/07/23 11:00:25;;;;;;;6.47;5.97;;;28.50;42.30;;;;;;4987223;28;20558;-72
2022/07/23 11:02:53;;;;;;;6.50;6.00;;;28.60;40.70;;;;;;4927088;29;20934;-71
2022/07/23 11:05:22;;;;;;;8.60;8.00;;;28.40;42.60;;;;;;4973600;28;20422;-78
2022/07/23 11:08:11;;;;;;;8.40;7.22;;;28.40;41.20;;;;;;4987761;28;20436;-74
2022/07/23 11:10:39;;;;;;;6.40;5.90;;;28.50;42.30;;;;;;4986202;28;20798;-74
2022/07/23 11:13:28;;;;;;;5.77;5.37;;;28.60;41.80;;;;;;4987921;28;20733;-75
2022/07/23 11:16:16;;;;;;;5.55;5.07;;;28.70;41.50;;;;;;4987197;28;20438;-75
2022/07/23 11:19:06;;;;;;;5.70;5.30;;;29.00;41.40;;;;;;4987422;28;20583;-76
2022/07/23 11:21:50;;;;;;;5.60;5.10;;;29.20;38.60;;;;;;4984728;28;20414;-74
2022/07/23 11:24:24;;;;;;;5.30;4.90;;;29.20;39.30;;;;;;4987471;28;20734;-73
2022/07/23 11:27:05;;;;;;;5.10;4.80;;;29.30;38.50;;;;;;4986988;28;20442;-77
2022/07/23 11:29:51;;;;;;;6.05;5.55;;;29.50;38.30;;;;;;4987578;28;20425;-74
2022/07/23 11:32:40;;;;;;;6.65;6.15;;;29.50;38.20;;;;;;4986150;28;20950;-74
2022/07/23 11:35:25;;;;;;;6.10;5.60;;;29.50;38.90;;;;;;4981898;28;20434;-75
2022/07/23 11:37:58;;;;;;;5.20;4.70;;;29.60;37.70;;;;;;4987738;28;20466;-75
2022/07/23 11:40:26;;;;;;;4.30;4.00;;;29.50;37.50;;;;;;4986400;28;20480;-74
2022/07/23 11:42:57;;;;;;;5.25;4.82;;;29.50;38.40;;;;;;4987582;28;20437;-76
2022/07/23 11:45:26;;;;;;;4.50;4.20;;;29.70;38.90;;;;;;4987210;28;20426;-75
2022/07/23 11:47:54;;;;;;;4.95;4.65;;;29.90;38.40;;;;;;4987299;28;20452;-71
2022/07/23 11:50:24;;;;;;;6.60;6.10;;;30.20;38.10;;;;;;4984595;28;20414;-74
2022/07/23 11:52:51;;;;;;;5.43;5.13;;;30.40;36.50;;;;;;4987221;28;20414;-72
2022/07/23 11:55:19;;;;;;;5.88;5.47;;;30.30;36.30;;;;;;4986904;28;20624;-74
2022/07/23 11:57:46;;;;;;;4.90;4.50;;;30.20;36.30;;;;;;4987516;28;20424;-73
2022/07/23 12:00:15;;;;;;;5.20;4.80;;;30.10;37.10;;;;;;4986364;28;20461;-72
2022/07/23 12:02:43;;;;;;;5.60;5.10;;;30.10;36.50;;;;;;4987356;28;20430;-74
2022/07/23 12:05:15;;;;;;;5.57;5.20;;;30.10;36.90;;;;;;4985483;28;20927;-72
2022/07/23 12:07:44;;;;;;;5.32;5.00;;;30.20;38.20;;;;;;4986691;28;20512;-73
2022/07/23 12:10:14;;;;;;;6.07;5.60;;;30.40;37.30;;;;;;4985699;28;20430;-73
2022/07/23 12:12:43;;;;;;;6.50;6.07;;;30.40;36.50;;;;;;4986560;28;20418;-73
2022/07/23 12:15:12;;;;;;;6.07;5.68;;;30.40;35.70;;;;;;4986322;28;20436;-72
2022/07/23 12:17:41;;;;;;;5.90;5.50;;;30.30;36.20;;;;;;4986152;28;20433;-72
2022/07/23 12:20:10;;;;;;;5.90;5.50;;;30.20;36.50;;;;;;4984935;28;20422;-76
2022/07/23 12:22:40;;;;;;;5.10;4.70;;;30.00;35.90;;;;;;4986193;28;20536;-73
2022/07/23 12:25:10;;;;;;;4.60;4.38;;;29.80;35.90;;;;;;4986469;28;20483;-74
2022/07/23 12:27:38;;;;;;;5.28;4.97;;;29.80;37.20;;;;;;4986575;28;20493;-74
2022/07/23 12:30:19;;;;;;;5.38;4.97;;;30.00;36.20;;;;;;4985431;28;20428;-77
2022/07/23 12:32:48;;;;;;;4.70;4.30;;;30.30;36.00;;;;;;4986538;28;20422;-74
2022/07/23 12:35:15;;;;;;;4.57;4.25;;;30.50;35.20;;;;;;4985113;28;20424;-75
2022/07/23 12:37:45;;;;;;;4.30;4.00;;;30.60;34.40;;;;;;4986036;28;20418;-72
2022/07/23 12:40:23;;;;;;;3.80;3.50;;;30.60;34.30;;;;;;4985362;28;20414;-74